createdAt,value
2018-11-22T00:01:46.378Z,96.30
2018-11-22T00:04:12.117Z,96.50
2018-11-22T00:06:21.832Z,96.40
2018-11-22T00:08:40.154Z,96.30
2018-11-22T00:11:06.799Z,96.40
2018-11-22T00:13:19.021Z,96.20
2018-11-22T00:15:33.165Z,96.20
2018-11-22T00:17:44.052Z,96.20
2018-11-22T00:19:56.734Z,96.30
2018-11-22T00:22:21.788Z,96.50
2018-11-22T00:24:31.593Z,96.30
2018-11-22T00:26:44.369Z,96.40
2018-11-22T00:28:54.688Z,96.30
2018-11-22T00:31:14.417Z,96.40
2018-11-22T00:33:23.503Z,96.40
2018-11-22T00:35:33.273Z,96.60
2018-11-22T00:37:54.238Z,96.40
2018-11-22T00:40:09.234Z,96.40
2018-11-22T00:42:42.843Z,96.40
2018-11-22T00:45:05.726Z,96.30
2018-11-22T00:47:18.777Z,96.30
2018-11-22T00:49:37.310Z,96.20
2018-11-22T00:51:58.785Z,96.20
2018-11-22T00:54:09.124Z,96.30
2018-11-22T00:56:20.844Z,96.30
2018-11-22T00:58:33.531Z,96.20
2018-11-22T01:00:46.181Z,96.00
2018-11-22T01:02:53.898Z,96.10
2018-11-22T01:05:05.926Z,96.70
2018-11-22T01:07:14.209Z,96.50
2018-11-22T01:09:27.410Z,96.70
2018-11-22T01:11:36.824Z,96.70
2018-11-22T01:13:50.710Z,96.40
2018-11-22T01:16:13.463Z,96.80
2018-11-22T01:18:26.090Z,96.70
2018-11-22T01:20:40.424Z,96.70
2018-11-22T01:28:03.369Z,96.40
2018-11-22T01:33:10.484Z,96.40
2018-11-22T01:35:30.042Z,96.20
2018-11-22T01:37:58.414Z,96.00
2018-11-22T01:40:46.191Z,96.20
2018-11-22T01:43:10.290Z,96.50
2018-11-22T01:45:28.922Z,96.50
2018-11-22T01:47:58.514Z,96.40
2018-11-22T01:50:37.378Z,96.50
2018-11-22T01:52:57.799Z,96.70
2018-11-22T01:55:24.704Z,97.10
2018-11-22T01:57:51.863Z,96.70
2018-11-22T02:00:08.291Z,96.60
2018-11-22T02:02:36.109Z,96.70
2018-11-22T02:05:03.949Z,96.90
2018-11-22T02:07:29.642Z,96.70
2018-11-22T02:10:06.074Z,96.70
2018-11-22T02:12:28.481Z,96.80
2018-11-22T02:17:10.868Z,97.00
2018-11-22T02:19:31.473Z,97.10
2018-11-22T02:29:25.562Z,97.00
2018-11-22T02:31:50.926Z,96.80
2018-11-22T02:34:10.438Z,96.70
2018-11-22T02:38:57.222Z,96.80
2018-11-22T02:41:21.509Z,96.70
2018-11-22T02:43:42.640Z,96.40
2018-11-22T02:48:48.259Z,96.30
2018-11-22T02:51:10.854Z,96.20
2018-11-22T02:53:47.185Z,96.50
2018-11-22T02:56:16.590Z,96.20
2018-11-22T02:58:43.107Z,96.30
2018-11-22T03:00:51.578Z,96.40
2018-11-22T03:03:05.640Z,96.40
2018-11-22T03:05:49.786Z,96.40
2018-11-22T03:10:54.097Z,96.10
2018-11-22T03:13:04.125Z,96.30
2018-11-22T03:18:25.360Z,96.30
2018-11-22T03:20:53.630Z,96.10
2018-11-22T03:23:20.139Z,96.00
2018-11-22T03:28:24.119Z,96.10
2018-11-22T03:30:44.972Z,96.00
2018-11-22T03:33:07.578Z,96.10
2018-11-22T03:35:37.803Z,96.00
2018-11-22T03:37:55.054Z,95.90
2018-11-22T03:40:33.699Z,96.40
2018-11-22T03:43:12.246Z,95.80
2018-11-22T03:45:23.334Z,96.10
2018-11-22T03:47:54.189Z,96.30
2018-11-22T03:53:20.460Z,96.20
2018-11-22T03:55:42.898Z,96.50
2018-11-22T03:58:02.534Z,96.50
2018-11-22T04:06:24.503Z,96.40
2018-11-22T04:08:50.989Z,96.40
2018-11-22T04:11:17.369Z,96.40
2018-11-22T04:13:40.716Z,96.40
2018-11-22T04:15:59.171Z,96.10
2018-11-22T04:18:16.693Z,96.20
2018-11-22T04:20:49.239Z,96.40
2018-11-22T04:23:11.495Z,96.00
2018-11-22T04:25:31.190Z,96.10
2018-11-22T04:28:01.903Z,96.50
2018-11-22T04:30:22.849Z,96.80
2018-11-22T04:33:01.703Z,97.00
2018-11-22T04:35:36.095Z,96.90
2018-11-22T04:37:48.590Z,96.90
2018-11-22T04:40:03.661Z,97.10
2018-11-22T04:42:16.148Z,97.20
2018-11-22T04:45:00.152Z,97.40
2018-11-22T04:47:48.101Z,97.20
2018-11-22T04:50:22.585Z,97.00
2018-11-22T04:53:08.534Z,96.90
2018-11-22T04:55:29.213Z,97.30
2018-11-22T04:57:50.242Z,97.40
2018-11-22T05:07:45.910Z,97.70
2018-11-22T05:09:59.198Z,97.70
2018-11-22T05:12:46.381Z,97.70
2018-11-22T05:15:09.794Z,97.50
2018-11-22T05:17:37.178Z,97.60
2018-11-22T05:20:05.589Z,97.60
2018-11-22T05:22:16.857Z,97.40
2018-11-22T05:24:47.863Z,97.80
2018-11-22T05:27:00.921Z,97.90
2018-11-22T05:29:47.149Z,98.10
2018-11-22T05:32:35.370Z,98.20
2018-11-22T05:34:59.062Z,98.20
2018-11-22T05:37:25.148Z,98.30
2018-11-22T05:39:43.724Z,98.60
2018-11-22T05:42:13.010Z,98.70
2018-11-22T05:45:05.802Z,98.60
2018-11-22T05:47:27.327Z,98.60
2018-11-22T05:49:48.688Z,98.70
2018-11-22T05:52:04.964Z,98.50
2018-11-22T05:54:24.196Z,98.30
2018-11-22T05:56:52.073Z,98.30
2018-11-22T05:59:31.013Z,98.10
2018-11-22T06:01:54.026Z,98.50
2018-11-22T06:06:37.782Z,98.40
2018-11-22T06:14:30.435Z,98.00
2018-11-22T06:16:47.691Z,98.00
2018-11-22T06:19:30.879Z,98.10
2018-11-22T06:22:01.144Z,98.40
2018-11-22T06:24:25.472Z,98.30
2018-11-22T06:29:37.364Z,98.50
2018-11-22T06:34:52.583Z,98.20
2018-11-22T06:37:15.507Z,98.20
2018-11-22T06:41:51.850Z,97.70
2018-11-22T06:44:13.854Z,98.00
2018-11-22T06:46:58.748Z,97.80
2018-11-22T06:49:37.854Z,97.40
2018-11-22T06:52:03.834Z,97.60
2018-11-22T06:54:18.209Z,97.70
2018-11-22T06:56:49.342Z,97.90
2018-11-22T06:59:09.739Z,98.30
2018-11-22T07:01:36.263Z,98.60
2018-11-22T07:04:02.979Z,98.60
2018-11-22T07:06:29.384Z,98.30
2018-11-22T07:09:05.350Z,98.40
2018-11-22T07:11:45.381Z,98.80
2018-11-22T07:14:04.725Z,99.00
2018-11-22T07:16:24.383Z,99.00
2018-11-22T07:18:48.258Z,99.10
2018-11-22T07:26:54.176Z,98.50
2018-11-22T07:34:00.538Z,98.70
2018-11-22T07:36:22.198Z,99.50
2018-11-22T07:41:36.291Z,98.50
2018-11-22T07:43:46.381Z,97.90
2018-11-22T07:45:54.533Z,97.40
2018-11-22T07:48:25.518Z,97.20
2018-11-22T07:55:53.712Z,95.40
2018-11-22T08:01:03.237Z,95.10
2018-11-22T08:03:21.345Z,94.90
2018-11-22T08:05:53.888Z,94.70
2018-11-22T08:08:20.507Z,94.60
2018-11-22T08:10:40.410Z,94.50
2018-11-22T08:13:08.853Z,94.30
2018-11-22T08:15:55.580Z,94.20
2018-11-22T08:18:17.530Z,94.20
2018-11-22T08:20:33.523Z,94.30
2018-11-22T08:25:48.842Z,93.80
2018-11-22T08:28:29.273Z,93.70
2018-11-22T08:30:49.515Z,93.40
2018-11-22T08:33:14.614Z,93.20
2018-11-22T08:35:46.123Z,93.30
2018-11-22T08:38:12.238Z,93.30
2018-11-22T08:40:48.006Z,93.30
2018-11-22T08:43:35.477Z,93.10
2018-11-22T08:45:56.950Z,93.10
2018-11-22T08:48:20.437Z,93.10
2018-11-22T08:53:28.671Z,92.70
2018-11-22T08:55:51.958Z,92.30
2018-11-22T08:58:12.384Z,92.30
2018-11-22T09:03:28.409Z,92.40
2018-11-22T09:05:53.450Z,92.10
2018-11-22T09:08:14.067Z,92.00
2018-11-22T09:10:39.150Z,91.90
2018-11-22T09:12:57.816Z,91.80
2018-11-22T09:15:23.413Z,91.80
2018-11-22T09:17:47.257Z,91.40
2018-11-22T09:20:12.157Z,91.40
2018-11-22T09:22:40.389Z,91.50
2018-11-22T09:27:32.647Z,91.50
2018-11-22T09:29:48.960Z,91.30
2018-11-22T09:32:31.823Z,91.30
2018-11-22T09:35:19.511Z,91.10
2018-11-22T09:37:50.849Z,91.10
2018-11-22T09:40:38.584Z,91.00
2018-11-22T09:43:10.044Z,90.70
2018-11-22T09:48:30.701Z,90.80
2018-11-22T09:50:56.088Z,90.80
2018-11-22T09:53:44.786Z,90.70
2018-11-22T09:59:40.729Z,90.60
2018-11-22T10:04:37.380Z,90.60
2018-11-22T10:07:02.301Z,90.50
2018-11-22T10:09:29.940Z,90.20
2018-11-22T10:12:11.201Z,90.20
2018-11-22T10:14:32.788Z,90.00
2018-11-22T10:17:02.174Z,89.80
2018-11-22T10:19:25.450Z,89.80
2018-11-22T10:21:49.448Z,90.00
2018-11-22T10:24:06.007Z,90.00
2018-11-22T10:31:49.758Z,89.80
2018-11-22T10:40:00.197Z,90.00
2018-11-22T10:42:37.980Z,89.60
2018-11-22T11:00:44.313Z,90.20
2018-11-22T11:03:10.906Z,90.20
2018-11-22T11:05:44.731Z,90.30
2018-11-22T11:08:34.910Z,90.30
2018-11-22T11:11:06.482Z,90.60
2018-11-22T11:13:34.654Z,90.60
2018-11-22T11:21:21.117Z,90.20
2018-11-22T11:23:57.275Z,90.30
2018-11-22T11:26:18.687Z,90.40
2018-11-22T11:34:19.900Z,90.90
2018-11-22T11:36:55.629Z,90.90
2018-11-22T11:39:28.877Z,90.50
2018-11-22T11:44:27.262Z,90.30
2018-11-22T11:46:50.024Z,90.20
2018-11-22T11:49:03.049Z,90.40
2018-11-22T11:51:34.257Z,90.30
2018-11-22T11:54:06.540Z,90.20
2018-11-22T12:01:46.759Z,89.10
2018-11-22T12:04:18.221Z,89.10
2018-11-22T12:07:09.662Z,88.20
2018-11-22T12:09:28.086Z,87.00
2018-11-22T12:11:36.033Z,84.90
2018-11-22T12:21:45.931Z,84.40
2018-11-22T12:24:14.036Z,84.90
2018-11-22T12:26:46.814Z,86.20
2018-11-22T12:28:55.796Z,87.20
2018-11-22T12:31:31.732Z,87.50
2018-11-22T12:34:20.395Z,87.40
2018-11-22T12:37:13.212Z,86.70
2018-11-22T12:45:37.432Z,88.80
2018-11-22T12:50:34.351Z,88.70
2018-11-22T12:53:33.124Z,89.30
2018-11-22T12:55:57.447Z,89.60
2018-11-22T12:58:33.816Z,89.50
2018-11-22T13:08:59.688Z,87.40
2018-11-22T13:11:34.253Z,87.20
2018-11-22T13:14:05.811Z,87.60
2018-11-22T13:16:41.618Z,87.80
2018-11-22T13:19:14.420Z,88.10
2018-11-22T13:21:35.581Z,88.80
2018-11-22T13:24:14.485Z,88.60
2018-11-22T13:26:50.299Z,87.90
2018-11-22T13:29:40.066Z,87.20
2018-11-22T13:35:23.847Z,88.00
2018-11-22T13:40:40.804Z,88.70
2018-11-22T13:43:12.116Z,88.90
2018-11-22T13:45:58.043Z,89.10
2018-11-22T13:48:14.803Z,88.70
2018-11-22T13:50:41.918Z,88.70
2018-11-22T13:52:59.180Z,89.10
2018-11-22T13:55:32.681Z,89.40
2018-11-22T13:57:55.187Z,89.10
2018-11-22T14:03:17.489Z,89.10
2018-11-22T14:05:36.786Z,89.00
2018-11-22T14:10:39.339Z,88.60
2018-11-22T14:13:00.706Z,89.30
2018-11-22T14:15:30.284Z,88.20
2018-11-22T14:18:24.903Z,87.60
2018-11-22T14:20:42.032Z,87.50
2018-11-22T14:22:55.404Z,87.00
2018-11-22T14:25:13.116Z,87.40
2018-11-22T14:28:00.642Z,87.90
2018-11-22T14:30:27.633Z,87.70
2018-11-22T14:32:54.461Z,88.00
2018-11-22T14:35:08.458Z,88.40
2018-11-22T14:40:27.178Z,88.90
2018-11-22T14:42:53.848Z,88.50
2018-11-22T14:45:32.932Z,88.70
2018-11-22T14:47:58.593Z,89.00
2018-11-22T14:50:58.810Z,89.90
2018-11-22T14:53:21.822Z,90.30
2018-11-22T14:55:33.757Z,90.40
2018-11-22T15:04:02.305Z,90.80
2018-11-22T15:06:30.147Z,91.10
2018-11-22T15:08:48.245Z,91.60
2018-11-22T15:11:06.763Z,91.30
2018-11-22T15:13:32.962Z,91.30
2018-11-22T15:16:03.842Z,92.00
2018-11-22T15:23:44.777Z,92.10
2018-11-22T15:26:03.602Z,92.10
2018-11-22T15:28:29.831Z,92.20
2018-11-22T15:30:49.875Z,92.20
2018-11-22T15:33:17.180Z,92.40
2018-11-22T15:38:26.141Z,92.90
2018-11-22T15:40:49.661Z,93.10
2018-11-22T15:43:07.943Z,92.90
2018-11-22T15:45:34.816Z,92.70
2018-11-22T15:47:50.981Z,92.40
2018-11-22T15:50:11.076Z,92.10
2018-11-22T15:52:38.899Z,92.20
2018-11-22T15:54:56.865Z,92.00
2018-11-22T15:57:25.803Z,91.90
2018-11-22T15:59:46.862Z,92.00
2018-11-22T16:02:10.125Z,92.10
2018-11-22T16:04:29.977Z,92.00
2018-11-22T16:06:45.802Z,92.00
2018-11-22T16:09:15.174Z,91.90
2018-11-22T16:11:36.144Z,92.00
2018-11-22T16:13:55.151Z,92.40
2018-11-22T16:16:16.444Z,92.40
2018-11-22T16:18:38.040Z,92.30
2018-11-22T16:21:07.376Z,92.50
2018-11-22T16:26:10.967Z,92.40
2018-11-22T16:28:45.009Z,92.40
2018-11-22T16:31:15.500Z,92.50
2018-11-22T16:33:34.367Z,92.60
2018-11-22T16:35:55.953Z,92.70
2018-11-22T16:38:18.817Z,92.80
2018-11-22T16:40:57.881Z,92.20
2018-11-22T16:43:14.801Z,92.20
2018-11-22T16:45:37.947Z,92.40
2018-11-22T16:50:16.143Z,91.90
2018-11-22T16:52:45.554Z,92.00
2018-11-22T16:55:10.252Z,92.20
2018-11-22T16:57:42.469Z,92.90
2018-11-22T17:00:03.893Z,92.90
2018-11-22T17:02:49.707Z,93.10
2018-11-22T17:05:30.499Z,93.20
2018-11-22T17:08:00.927Z,93.80
2018-11-22T17:13:21.851Z,93.70
2018-11-22T17:15:41.809Z,93.40
2018-11-22T17:18:34.661Z,93.70
2018-11-22T17:21:04.163Z,93.60
2018-11-22T17:28:38.803Z,93.40
2018-11-22T17:31:00.183Z,93.90
2018-11-22T17:33:19.217Z,93.80
2018-11-22T17:35:39.832Z,93.70
2018-11-22T17:40:53.815Z,94.00
2018-11-22T17:46:06.408Z,94.10
2018-11-22T17:48:25.970Z,94.40
2018-11-22T17:53:32.077Z,94.70
2018-11-22T17:55:50.614Z,94.70
2018-11-22T17:58:11.201Z,94.90
2018-11-22T18:00:44.679Z,95.20
2018-11-22T18:03:05.283Z,94.80
2018-11-22T18:05:52.555Z,95.00
2018-11-22T18:11:02.619Z,95.20
2018-11-22T18:13:28.671Z,95.10
2018-11-22T18:16:06.049Z,95.30
2018-11-22T18:18:23.920Z,95.50
2018-11-22T18:20:44.292Z,95.60
2018-11-22T18:23:11.723Z,95.80
2018-11-22T18:28:21.678Z,96.30
2018-11-22T18:30:42.457Z,95.90
2018-11-22T18:35:59.963Z,96.30
2018-11-22T18:38:45.270Z,96.30
2018-11-22T18:40:58.242Z,96.40
2018-11-22T18:43:09.830Z,96.40
2018-11-22T18:48:56.935Z,96.50
2018-11-22T18:51:21.611Z,96.30
2018-11-22T18:53:40.625Z,96.40
2018-11-22T19:00:54.344Z,96.20
2018-11-22T19:06:16.593Z,95.70
2018-11-22T19:08:47.515Z,95.80
2018-11-22T19:11:09.065Z,96.10
2018-11-22T19:13:33.950Z,96.10
2018-11-22T19:15:48.391Z,95.70
2018-11-22T19:20:45.233Z,95.50
2018-11-22T19:23:13.185Z,95.70
2018-11-22T19:27:49.765Z,95.50
2018-11-22T19:30:21.766Z,95.50
2018-11-22T19:32:42.726Z,95.50
2018-11-22T19:35:05.983Z,95.60
2018-11-22T19:40:22.087Z,96.00
2018-11-22T19:43:05.176Z,96.30
2018-11-22T19:45:39.417Z,96.10
2018-11-22T19:48:05.696Z,96.10
2018-11-22T19:50:41.923Z,96.30
2018-11-22T19:53:00.103Z,96.10
2018-11-22T19:55:21.821Z,96.10
2018-11-22T19:57:34.031Z,96.00
2018-11-22T20:00:06.392Z,95.90
2018-11-22T20:02:54.920Z,95.70
2018-11-22T20:13:49.211Z,96.40
2018-11-22T20:16:08.198Z,96.50
2018-11-22T20:18:28.801Z,96.80
2018-11-22T20:20:49.490Z,96.60
2018-11-22T20:26:02.893Z,96.60
2018-11-22T20:28:29.064Z,96.60
2018-11-22T20:30:47.968Z,96.50
2018-11-22T20:33:19.365Z,96.50
2018-11-22T20:36:04.609Z,96.60
2018-11-22T20:38:17.951Z,96.50
2018-11-22T20:40:44.818Z,96.50
2018-11-22T20:43:06.677Z,96.20
2018-11-22T20:45:41.088Z,96.30
2018-11-22T20:50:30.673Z,96.30
2018-11-22T20:52:55.036Z,96.30
2018-11-22T20:55:26.061Z,96.30
2018-11-22T20:57:52.981Z,96.40
2018-11-22T21:00:12.125Z,96.40
2018-11-22T21:02:44.377Z,96.40
2018-11-22T21:08:07.760Z,96.30
2018-11-22T21:10:33.436Z,96.60
2018-11-22T21:12:53.779Z,96.90
2018-11-22T21:17:57.798Z,97.10
2018-11-22T21:20:36.403Z,97.20
2018-11-22T21:22:57.239Z,97.10
2018-11-22T21:25:42.200Z,97.00
2018-11-22T21:28:01.544Z,96.80
2018-11-22T21:32:56.694Z,97.50
2018-11-22T21:35:26.168Z,97.60
2018-11-22T21:38:11.168Z,97.60
2018-11-22T21:40:58.974Z,97.80
2018-11-22T21:43:19.903Z,97.80
2018-11-22T21:45:40.293Z,97.80
2018-11-22T21:50:58.341Z,98.00
2018-11-22T21:56:03.835Z,98.10
2018-11-22T21:58:53.860Z,98.20
2018-11-22T22:04:20.579Z,98.00
2018-11-22T22:06:39.150Z,98.10
2018-11-22T22:08:47.465Z,97.80
2018-11-22T22:11:19.809Z,97.80
2018-11-22T22:19:16.973Z,97.50
2018-11-22T22:24:37.620Z,97.40
2018-11-22T22:31:31.735Z,97.20
2018-11-22T22:33:51.191Z,97.50
2018-11-22T22:36:25.312Z,97.60
2018-11-22T22:39:11.433Z,97.50
2018-11-22T22:41:20.601Z,97.40
2018-11-22T22:43:50.491Z,96.90
2018-11-22T22:46:45.086Z,96.70
2018-11-22T22:51:56.917Z,96.50
2018-11-22T22:54:19.298Z,96.50
2018-11-22T22:56:47.349Z,96.80
2018-11-22T22:59:11.841Z,96.70
2018-11-22T23:01:32.877Z,96.70
2018-11-22T23:03:52.905Z,96.60
2018-11-22T23:11:25.788Z,96.90
2018-11-22T23:16:52.348Z,96.90
2018-11-22T23:32:44.843Z,97.70
2018-11-22T23:35:15.819Z,97.60
2018-11-22T23:37:45.342Z,97.70
2018-11-22T23:42:44.670Z,97.20
2018-11-22T23:45:17.169Z,96.90
2018-11-22T23:47:41.153Z,96.90
2018-11-22T23:49:59.768Z,96.90
2018-11-22T23:55:13.484Z,97.00
2018-11-22T23:57:31.091Z,96.90
2018-11-22T23:59:56.592Z,97.10
